Maassluis, Netherlands
Current Conditions -  °F | °C
As of 11:25 PM on Sunday 23 Nov 2014 (Local Time) from EHRD Reporting Station
Drizzle Drizzle  
Wind Chill: 50°   Ceiling: 1200
Heat Index: 50°   Visibility: 3mi
Dew Point: 48°   Wind: 12mph
Humidity: 94%   Direction: 330°NNW
Pressure: 30"   Gusts: NA
Location:  51.92°N, 4.25°E
Report Text: EHRD 232225Z AUTO 33010KT 300V010 5000 DZ FEW006 SCT009 BKN01210/09 Q1016 NOSIG
Loading
Personal Weather Stations






























Interactive Weather Map New forecast layout! Learn more

10-Day Weather Forecast

Advertisements
Track Severe Weather on mobile